createdAt,value
2023-03-06T00:04:38.375Z,993.90
2023-03-06T00:09:38.316Z,993.83
2023-03-06T00:14:38.226Z,993.82
2023-03-06T00:19:38.177Z,993.77
2023-03-06T00:24:38.134Z,993.78
2023-03-06T00:29:38.063Z,993.74
2023-03-06T00:34:37.978Z,993.69
2023-03-06T00:39:37.901Z,993.65
2023-03-06T00:44:37.838Z,993.58
2023-03-06T00:49:37.795Z,993.57
2023-03-06T00:54:37.791Z,993.53
2023-03-06T00:59:37.665Z,993.52
2023-03-06T01:04:37.595Z,993.48
2023-03-06T01:09:37.518Z,993.44
2023-03-06T01:14:37.475Z,993.44
2023-03-06T01:19:37.430Z,993.27
2023-03-06T01:24:37.316Z,993.28
2023-03-06T01:29:37.256Z,993.23
2023-03-06T01:34:37.193Z,993.16
2023-03-06T01:39:37.146Z,993.15
2023-03-06T01:44:37.061Z,993.08
2023-03-06T01:49:37.035Z,993.11
2023-03-06T01:54:36.971Z,992.99
2023-03-06T01:59:36.888Z,992.95
2023-03-06T02:04:36.821Z,993.04
2023-03-06T02:09:36.773Z,992.90
2023-03-06T02:14:36.720Z,992.83
2023-03-06T02:19:36.639Z,992.88
2023-03-06T02:24:36.584Z,992.92
2023-03-06T02:29:36.517Z,992.82
2023-03-06T02:34:36.477Z,992.73
2023-03-06T02:39:36.402Z,992.73
2023-03-06T02:44:36.340Z,992.63
2023-03-06T02:49:36.259Z,992.76
2023-03-06T02:54:36.310Z,992.65
2023-03-06T02:59:36.636Z,992.49
2023-03-06T03:04:36.096Z,992.51
2023-03-06T03:09:35.991Z,992.35
2023-03-06T03:14:36.007Z,992.34
2023-03-06T03:19:35.870Z,992.32
2023-03-06T03:24:35.839Z,992.29
2023-03-06T03:29:35.746Z,992.20
2023-03-06T03:34:35.742Z,992.23
2023-03-06T03:39:35.618Z,992.25
2023-03-06T03:44:35.583Z,992.24
2023-03-06T03:49:35.519Z,992.14
2023-03-06T03:54:35.464Z,992.01
2023-03-06T03:59:35.341Z,992.01
2023-03-06T04:04:35.328Z,991.98
2023-03-06T04:09:35.266Z,991.93
2023-03-06T04:14:35.209Z,991.86
2023-03-06T04:19:35.141Z,991.76
2023-03-06T04:24:35.009Z,991.87
2023-03-06T04:29:34.985Z,991.74
2023-03-06T04:34:34.962Z,991.78
2023-03-06T04:39:34.836Z,991.75
2023-03-06T04:44:34.793Z,991.74
2023-03-06T04:49:34.749Z,991.70
2023-03-06T04:54:34.650Z,991.52
2023-03-06T04:59:34.585Z,991.52
2023-03-06T05:04:34.509Z,991.52
2023-03-06T05:09:34.463Z,991.50
2023-03-06T05:14:34.387Z,991.46
2023-03-06T05:19:34.339Z,991.43
2023-03-06T05:24:34.290Z,991.44
2023-03-06T05:29:34.248Z,991.44
2023-03-06T05:34:34.130Z,991.36
2023-03-06T05:39:34.098Z,991.34
2023-03-06T05:44:33.982Z,991.35
2023-03-06T05:49:34.024Z,991.33
2023-03-06T05:54:33.894Z,991.25
2023-03-06T05:59:33.819Z,991.28
2023-03-06T06:04:33.749Z,991.20
2023-03-06T06:09:33.718Z,991.28
2023-03-06T06:14:33.630Z,991.33
2023-03-06T06:19:33.624Z,991.32
2023-03-06T06:24:33.540Z,991.38
2023-03-06T06:29:33.440Z,991.39
2023-03-06T06:34:33.345Z,991.33
2023-03-06T06:39:33.322Z,991.35
2023-03-06T06:44:33.247Z,991.38
2023-03-06T06:49:33.159Z,991.32
2023-03-06T06:54:33.119Z,991.35
2023-03-06T06:59:33.073Z,991.37
2023-03-06T07:04:32.998Z,991.34
2023-03-06T07:09:32.980Z,991.21
2023-03-06T07:14:32.877Z,991.28
2023-03-06T07:19:32.788Z,991.17
2023-03-06T07:24:32.771Z,991.16
2023-03-06T07:29:32.694Z,991.04
2023-03-06T07:34:32.592Z,991.16
2023-03-06T07:39:32.563Z,991.09
2023-03-06T07:44:32.510Z,991.06
2023-03-06T07:49:32.417Z,990.99
2023-03-06T07:54:32.339Z,991.10
2023-03-06T07:59:32.291Z,991.07
2023-03-06T08:04:32.199Z,991.15
2023-03-06T08:09:32.173Z,991.05
2023-03-06T08:14:32.092Z,991.01
2023-03-06T08:19:32.052Z,990.97
2023-03-06T08:24:31.938Z,991.10
2023-03-06T08:29:32.414Z,991.04
2023-03-06T08:34:31.839Z,990.98
2023-03-06T08:39:31.738Z,991.02
2023-03-06T08:44:31.752Z,991.11
2023-03-06T08:49:31.620Z,991.01
2023-03-06T08:54:31.580Z,991.10
2023-03-06T08:59:31.533Z,991.07
2023-03-06T09:04:31.438Z,991.21
2023-03-06T09:09:31.351Z,991.16
2023-03-06T09:14:31.278Z,991.14
2023-03-06T09:19:31.253Z,991.08
2023-03-06T09:24:31.231Z,991.05
2023-03-06T09:29:31.144Z,991.12
2023-03-06T09:34:31.100Z,991.01
2023-03-06T09:39:30.959Z,990.94
2023-03-06T09:44:31.021Z,990.86
2023-03-06T09:49:30.857Z,990.91
2023-03-06T09:54:34.778Z,990.93
2023-03-06T09:59:30.717Z,990.84
2023-03-06T10:04:30.661Z,990.85
2023-03-06T10:09:30.543Z,990.75
2023-03-06T10:14:30.477Z,990.69
2023-03-06T10:19:30.507Z,990.73
2023-03-06T10:24:30.396Z,990.67
2023-03-06T10:29:30.321Z,990.61
2023-03-06T10:34:30.240Z,990.73
2023-03-06T10:39:30.174Z,990.69
2023-03-06T10:44:30.105Z,990.64
2023-03-06T10:49:30.139Z,990.68
2023-03-06T10:54:30.013Z,990.67
2023-03-06T10:59:29.897Z,990.58
2023-03-06T11:04:29.898Z,990.58
2023-03-06T11:09:29.765Z,990.63
2023-03-06T11:14:29.793Z,990.55
2023-03-06T11:19:29.704Z,990.60
2023-03-06T11:24:29.575Z,990.56
2023-03-06T11:29:29.817Z,990.57
2023-03-06T11:34:29.459Z,990.63
2023-03-06T11:39:29.402Z,990.56
2023-03-06T11:44:29.314Z,990.61
2023-03-06T11:49:29.279Z,990.47
2023-03-06T11:54:29.525Z,990.45
2023-03-06T11:59:29.136Z,990.40
2023-03-06T12:04:29.170Z,990.32
2023-03-06T12:09:29.046Z,990.27
2023-03-06T12:14:28.959Z,990.20
2023-03-06T12:19:28.903Z,990.16
2023-03-06T12:24:28.820Z,990.03
2023-03-06T12:29:28.753Z,990.00
2023-03-06T12:34:28.678Z,989.98
2023-03-06T12:39:28.652Z,989.91
2023-03-06T12:44:28.534Z,989.95
2023-03-06T12:49:32.587Z,989.94
2023-03-06T12:54:28.445Z,989.95
2023-03-06T12:59:28.352Z,989.93
2023-03-06T13:04:28.324Z,989.89
2023-03-06T13:09:28.283Z,989.90
2023-03-06T13:14:28.162Z,990.01
2023-03-06T13:19:28.194Z,990.10
2023-03-06T13:24:28.044Z,990.06
2023-03-06T13:29:27.964Z,990.01
2023-03-06T13:34:27.892Z,989.99
2023-03-06T13:39:27.867Z,989.95
2023-03-06T13:44:27.756Z,989.88
2023-03-06T13:49:27.721Z,989.94
2023-03-06T13:54:28.594Z,989.79
2023-03-06T13:59:27.657Z,989.76
2023-03-06T14:04:27.499Z,989.67
2023-03-06T14:09:27.446Z,989.62
2023-03-06T14:14:27.356Z,989.63
2023-03-06T14:19:27.328Z,989.63
2023-03-06T14:24:27.225Z,989.61
2023-03-06T14:29:27.162Z,989.68
2023-03-06T14:34:27.387Z,989.59
2023-03-06T14:39:27.068Z,989.57
2023-03-06T14:44:26.967Z,989.61
2023-03-06T14:49:26.960Z,989.56
2023-03-06T14:54:26.842Z,989.65
2023-03-06T14:59:26.842Z,989.60
2023-03-06T15:04:26.786Z,989.59
2023-03-06T15:09:26.666Z,989.64
2023-03-06T15:14:26.603Z,989.61
2023-03-06T15:19:26.547Z,989.54
2023-03-06T15:24:26.479Z,989.60
2023-03-06T15:29:26.442Z,989.48
2023-03-06T15:34:26.364Z,989.51
2023-03-06T15:39:26.522Z,989.53
2023-03-06T15:44:26.199Z,989.41
2023-03-06T15:49:26.160Z,989.45
2023-03-06T15:54:26.184Z,989.47
2023-03-06T15:59:26.858Z,989.62
2023-03-06T16:04:25.965Z,989.78
2023-03-06T16:09:25.862Z,989.84
2023-03-06T16:14:25.848Z,989.97
2023-03-06T16:19:27.428Z,990.02
2023-03-06T16:24:25.663Z,990.12
2023-03-06T16:29:25.608Z,989.97
2023-03-06T16:34:25.526Z,990.20
2023-03-06T16:39:25.525Z,990.17
2023-03-06T16:44:25.552Z,990.08
2023-03-06T16:49:25.504Z,990.06
2023-03-06T16:54:25.298Z,990.07
2023-03-06T16:59:25.263Z,989.80
2023-03-06T17:04:25.212Z,989.81
2023-03-06T17:09:25.094Z,989.95
2023-03-06T17:14:25.075Z,990.00
2023-03-06T17:19:24.978Z,990.01
2023-03-06T17:24:24.918Z,990.08
2023-03-06T17:29:24.959Z,990.19
2023-03-06T17:34:24.801Z,990.15
2023-03-06T17:39:24.757Z,990.17
2023-03-06T17:44:24.626Z,990.20
2023-03-06T17:49:24.590Z,990.21
2023-03-06T17:54:24.505Z,990.45
2023-03-06T17:59:24.458Z,990.44
2023-03-06T18:04:24.395Z,990.43
2023-03-06T18:09:24.354Z,990.34
2023-03-06T18:14:24.237Z,990.39
2023-03-06T18:19:24.194Z,990.30
2023-03-06T18:24:24.185Z,990.29
2023-03-06T18:29:24.069Z,990.30
2023-03-06T18:34:24.250Z,990.34
2023-03-06T18:39:24.957Z,990.41
2023-03-06T18:44:23.901Z,990.49
2023-03-06T18:49:24.165Z,990.50
2023-03-06T18:54:23.753Z,990.40
2023-03-06T18:59:23.693Z,990.41
2023-03-06T19:04:23.670Z,990.48
2023-03-06T19:09:23.552Z,990.46
2023-03-06T19:14:23.533Z,990.56
2023-03-06T19:19:23.524Z,990.46
2023-03-06T19:24:23.405Z,990.43
2023-03-06T19:29:23.309Z,990.39
2023-03-06T19:34:23.290Z,990.35
2023-03-06T19:39:23.292Z,990.45
2023-03-06T19:44:23.177Z,990.44
2023-03-06T19:49:23.194Z,990.32
2023-03-06T19:54:23.125Z,990.36
2023-03-06T19:59:22.945Z,990.36
2023-03-06T20:04:22.935Z,990.42
2023-03-06T20:09:22.941Z,990.44
2023-03-06T20:14:22.751Z,990.40
2023-03-06T20:19:22.849Z,990.35
2023-03-06T20:24:22.824Z,990.48
2023-03-06T20:29:22.779Z,990.47
2023-03-06T20:34:22.481Z,990.33
2023-03-06T20:39:22.474Z,990.32
2023-03-06T20:44:22.373Z,990.37
2023-03-06T20:49:22.311Z,990.34
2023-03-06T20:54:22.315Z,990.37
2023-03-06T20:59:22.186Z,990.33
2023-03-06T21:04:22.094Z,990.24
2023-03-06T21:09:22.093Z,990.13
2023-03-06T21:14:22.052Z,990.06
2023-03-06T21:19:21.931Z,989.99
2023-03-06T21:24:21.992Z,989.80
2023-03-06T21:29:21.771Z,989.86
2023-03-06T21:34:21.712Z,989.82
2023-03-06T21:39:21.660Z,989.82
2023-03-06T21:44:21.570Z,989.80
2023-03-06T21:49:21.639Z,989.73
2023-03-06T21:54:21.485Z,989.68
2023-03-06T21:59:21.404Z,989.74
2023-03-06T22:04:21.402Z,989.81
2023-03-06T22:09:21.357Z,989.74
2023-03-06T22:14:21.256Z,989.70
2023-03-06T22:19:21.170Z,989.64
2023-03-06T22:24:21.913Z,989.67
2023-03-06T22:29:21.082Z,989.58
2023-03-06T22:34:20.986Z,989.56
2023-03-06T22:39:20.909Z,989.45
2023-03-06T22:44:20.858Z,989.47
2023-03-06T22:49:20.801Z,989.28
2023-03-06T22:54:20.746Z,989.37
2023-03-06T22:59:20.688Z,989.42
2023-03-06T23:04:20.682Z,989.45
2023-03-06T23:09:20.522Z,989.39
2023-03-06T23:14:20.889Z,989.34
2023-03-06T23:19:20.363Z,989.30
2023-03-06T23:24:20.389Z,989.27
2023-03-06T23:29:20.300Z,989.12
2023-03-06T23:34:20.170Z,989.25
2023-03-06T23:39:20.204Z,989.15
2023-03-06T23:44:20.155Z,989.02
2023-03-06T23:49:21.872Z,988.95
2023-03-06T23:54:19.964Z,988.98
2023-03-06T23:59:19.837Z,988.89
